CheckWX is a tool to help pilots better visualize weather data.  It is not intended as a substitute for an official pre-flight weather briefing.

19:25:08 UTC

OIAH METAR
Gachsaran Airport
Gachsaran, Iran
Current

25 mins ago

OIAH 311900Z 30006KT CAVOK 36/08 Q1009
Observed
May-31 @ 19:00 UTC
Wind
  • 300° at 6 KTS
Visibility
10,000+ meters
Flight Rules
VFR
Cloud Levels
  • Clear skies
Temperature
36°C / 97°F
Dewpoint
C / 46°F
Humidity
18%
Altimeter
29.79" Hg
Pressure
1008.92 hPa
Previous

1 hour ago

OIAH 311800Z 33008KT CAVOK 37/07 Q1009
Observed
May-31 @ 18:00 UTC
Wind
  • 330° at 8 KTS
Visibility
10,000+ meters
Flight Rules
VFR
Cloud Levels
  • Clear skies
Temperature
37°C / 99°F
Dewpoint
C / 45°F
Humidity
16%
Altimeter
29.79" Hg
Pressure
1008.92 hPa
Previous

2 hours ago

OIAH 311700Z 30006KT 9999 FEW040 37/06 Q1009
Observed
May-31 @ 17:00 UTC
Wind
  • 300° at 6 KTS
Visibility
10,000+ meters
Flight Rules
VFR
Cloud Levels
  • Few at 4,000' AGL
Temperature
37°C / 99°F
Dewpoint
C / 43°F
Humidity
15%
Altimeter
29.79" Hg
Pressure
1008.92 hPa